Terminal Aerodrome Forecast
Issued by NWS

Home | Current Version | Previous Version | Text Only | Print | Product List | Glossary On
Versions: 1 2 3 4 5 6 7 8 9 10 11 12 13
000
FTUS42 TJSJ 221700
TAFISX
TAF
TISX 221739Z 2218/2318 11012KT P6SM SCT025 SCT035
     FM222300 08007KT P6SM VCSH FEW030
     FM231300 09013KT P6SM VCSH SCT025 SCT035
      AMD NOT SKED=

USA.gov is the U.S. government's official web portal to all federal, state and local government web resources and services.